Pointblank, TX

09:11 AM CDT del 30 Marzo 2015 (GMT -0500)
KTXOAKHU2 | | Change Station
CLOSE
Current Station
Stazione meteo personale
Location: Oakhurst, TX
Altitudine: 181 ft
Stazioni meteo nelle vicinanze

Alt. 181 ft 30.83 °N, 95.33 °W | Updated 3 seconds ago

Parzialmente nuvoloso
Parzialmente nuvoloso
67.1 °F
Sembra 67.1 °F
N
1.0
Vento Variabile Vento da SSE
Gusts 11.0 mph

Oggi
Massima -- | Minima -- °F
--% Possibilità di precip.
Ieri
Massima -- | Minima -- °F
Precip. -- in
7:12 AM 7:38 PM
Gobba a ponente, 80% visible
Pressione 30.18 in
Visibilità 10.0 miglia
Nuvole Alcuni 3000 ft
Punto di rugiada 64 °F
Umidità 90%
Piovosità 0.00 in
Spessore del manto nevoso Non disponibile.
Raggi UV 1 fuori da 12
Polline 10.30 fuori da 12
Qualità dell'aria Non disponibile.
Flu Activity Non disponibile.
METAR KUTS 301353Z AUTO 19007KT 10SM FEW030 19/18 A3019 RMK AO2 SLP219 T01940178

More Conditions Fewer Conditions

Pressione 30.18 in
Visibilità 10.0 miglia
Nuvole Alcuni 3000 ft
Punto di rugiada 64 °F
Umidità 90%
Piovosità 0.00 in
Spessore del manto nevoso Non disponibile.
Raggi UV 1 fuori da 12
Polline 10.30 fuori da 12
Qualità dell'aria Non disponibile.
Flu Activity Non disponibile.
METAR KUTS 301353Z AUTO 19007KT 10SM FEW030 19/18 A3019 RMK AO2 SLP219 T01940178

More Conditions Fewer Conditions

10-Day Weather Forecast

Almanac

Astronomia

Mar. 30, 2015 Alba Tramonto
Ora attuale
Crepuscolo civile
Crepuscolo nautico
Crepuscolo astronomico
Luna
Estensione della luce visibile
Lunghezza del giorno
Tomorrow will be .
, % of the Moon is Illuminated

Gli estremi di oggi

State Highs State Lows

Community

WunderPhotos

Upload Photos

1,809,502 foto caricate!

WunderBlogs® & News

Nearby

Qualità dell'aria

  Qualità dell'aria Indice AQ Inquinante
Not available.

Profondità neve

Stazione Profondità Altitudine

Attività sismica

Città  Distanza Mag. Data & Ora
Minimo Magnitudo Mostrato è 2.5.

Temperature delle acque costiere

Località Temperatura

Stations

Stazioni meteo nelle vicinanze

Ubicazione della stazione Temp. Raffreddamento del vento Punto di rugiada Umidità Vento Precip. Alt. Aggiornato Tipo